Time;durP1;ratioP1;P1;durP2;ratioP2;P2;SDS_P1;SDS_P2;PMS_P1;PMS_P2;Temp;Humidity;BMP_temperature;BMP_pressure;BME280_temperature;BME280_humidity;BME280_pressure;Samples;Min_cycle;Max_cycle;Signal;HPM_P1;HPM_P2
2021/09/21 00:00:57;;;;;;;8.75;5.43;;;11.20;99.90;;;;;;4980334;28;20038;-64
2021/09/21 00:03:22;;;;;;;10.45;5.40;;;11.30;99.90;;;;;;4981290;28;20034;-63
2021/09/21 00:05:48;;;;;;;10.32;5.80;;;11.30;99.90;;;;;;4981644;28;20034;-64
2021/09/21 00:08:13;;;;;;;10.73;5.40;;;11.30;99.90;;;;;;4979424;28;20034;-64
2021/09/21 00:10:39;;;;;;;9.52;5.38;;;11.30;99.90;;;;;;4980870;28;20387;-64
2021/09/21 00:13:04;;;;;;;10.65;5.15;;;11.20;99.90;;;;;;4979247;28;20038;-64
2021/09/21 00:15:30;;;;;;;9.05;4.95;;;11.20;99.90;;;;;;4979911;28;20476;-64
2021/09/21 00:17:55;;;;;;;10.98;5.60;;;11.20;99.90;;;;;;4980718;28;20041;-64
2021/09/21 00:20:21;;;;;;;9.18;5.30;;;11.20;99.90;;;;;;4980220;28;20030;-64
2021/09/21 00:22:46;;;;;;;7.88;4.82;;;11.20;99.90;;;;;;4979451;28;20740;-64
2021/09/21 00:25:12;;;;;;;10.63;4.78;;;11.20;99.90;;;;;;4980235;28;20780;-63
2021/09/21 00:27:37;;;;;;;8.30;5.18;;;11.20;99.90;;;;;;4980788;28;20126;-64
2021/09/21 00:30:03;;;;;;;10.52;5.63;;;11.20;99.90;;;;;;4980321;28;20725;-64
2021/09/21 00:32:29;;;;;;;10.95;5.65;;;11.30;99.90;;;;;;4979087;28;20049;-64
2021/09/21 00:34:54;;;;;;;12.40;6.30;;;11.20;99.90;;;;;;4980877;28;20109;-64
2021/09/21 00:37:20;;;;;;;10.13;4.97;;;11.20;99.90;;;;;;4980297;28;20037;-64
2021/09/21 00:39:45;;;;;;;8.48;5.18;;;11.20;99.90;;;;;;4978222;28;20121;-64
2021/09/21 00:42:11;;;;;;;7.85;4.85;;;11.20;99.90;;;;;;4980194;28;20120;-63
2021/09/21 00:44:36;;;;;;;11.77;4.78;;;11.20;99.90;;;;;;4973236;28;20033;-64
2021/09/21 00:47:02;;;;;;;12.43;5.15;;;11.10;99.90;;;;;;4979417;28;20069;-64
2021/09/21 00:49:27;;;;;;;9.10;5.00;;;11.10;99.90;;;;;;4977053;28;20038;-64
2021/09/21 00:51:53;;;;;;;10.25;4.80;;;11.00;99.90;;;;;;4979810;28;20129;-64
2021/09/21 00:54:18;;;;;;;9.75;4.93;;;11.00;99.90;;;;;;4979900;28;20096;-64
2021/09/21 00:56:44;;;;;;;7.35;4.85;;;11.00;99.90;;;;;;4980117;28;20046;-64
2021/09/21 00:59:09;;;;;;;10.10;5.57;;;11.00;99.90;;;;;;4979916;28;20041;-64
2021/09/21 01:01:35;;;;;;;8.25;5.25;;;11.00;99.90;;;;;;4977197;28;20569;-64
2021/09/21 01:04:00;;;;;;;8.55;4.70;;;11.00;99.90;;;;;;4978280;28;20133;-64
2021/09/21 01:06:26;;;;;;;8.65;5.10;;;11.00;99.90;;;;;;4979493;28;20069;-64
2021/09/21 01:08:51;;;;;;;10.50;5.35;;;11.00;99.90;;;;;;4979879;28;20034;-64
2021/09/21 01:11:17;;;;;;;8.85;4.95;;;10.90;99.90;;;;;;4978566;28;20749;-64
2021/09/21 01:13:42;;;;;;;7.28;5.22;;;11.00;99.90;;;;;;4978598;28;20034;-63
2021/09/21 01:16:08;;;;;;;7.57;4.63;;;10.90;99.90;;;;;;4980046;28;20038;-64
2021/09/21 01:18:33;;;;;;;11.52;4.78;;;11.00;99.90;;;;;;4978783;28;20037;-64
2021/09/21 01:20:59;;;;;;;7.32;4.78;;;11.00;99.90;;;;;;4979272;28;20120;-64
2021/09/21 01:23:24;;;;;;;7.55;4.63;;;11.00;99.90;;;;;;4979560;28;20042;-64
2021/09/21 01:25:50;;;;;;;9.57;4.75;;;11.00;99.90;;;;;;4977842;28;20034;-64
2021/09/21 01:28:15;;;;;;;8.90;4.78;;;11.00;99.90;;;;;;4979301;28;20034;-64
2021/09/21 01:30:41;;;;;;;11.43;4.88;;;11.00;99.90;;;;;;4961362;28;20517;-64
2021/09/21 01:33:06;;;;;;;8.02;5.18;;;11.00;99.90;;;;;;4978460;28;20812;-64
2021/09/21 01:35:32;;;;;;;11.15;4.85;;;11.00;99.90;;;;;;4978993;28;20038;-64
2021/09/21 01:37:57;;;;;;;11.02;5.50;;;11.00;99.90;;;;;;4976593;28;20058;-64
2021/09/21 01:40:23;;;;;;;7.95;4.88;;;11.00;99.90;;;;;;4982018;28;20053;-64
2021/09/21 01:42:48;;;;;;;7.35;4.75;;;11.10;99.90;;;;;;4978332;28;20501;-64
2021/09/21 01:45:14;;;;;;;7.85;4.60;;;11.10;99.90;;;;;;4979227;28;20045;-64
2021/09/21 01:47:39;;;;;;;10.75;5.65;;;11.10;99.90;;;;;;4977833;28;20029;-64
2021/09/21 01:53:09;;;;;;;10.93;5.15;;;11.10;99.90;;;;;;4977742;28;20037;-64
2021/09/21 02:00:52;;;;;;;9.73;5.40;;;11.10;99.90;;;;;;4979126;28;20068;-64
2021/09/21 02:03:18;;;;;;;10.35;5.75;;;11.10;99.90;;;;;;4985841;28;20102;-64
2021/09/21 02:05:44;;;;;;;10.68;5.30;;;11.20;99.90;;;;;;4985180;28;20105;-64
2021/09/21 02:08:09;;;;;;;9.43;4.53;;;11.10;99.90;;;;;;4985011;28;20128;-64
2021/09/21 02:10:35;;;;;;;8.95;5.18;;;11.10;99.90;;;;;;4988112;28;20050;-64
2021/09/21 02:13:00;;;;;;;8.30;5.05;;;11.10;99.90;;;;;;4985210;28;20034;-63
2021/09/21 02:15:26;;;;;;;8.70;5.47;;;11.10;99.90;;;;;;4985435;28;20506;-64
2021/09/21 02:17:51;;;;;;;7.68;5.13;;;11.10;99.90;;;;;;4982848;28;20823;-64
2021/09/21 02:20:17;;;;;;;9.73;5.40;;;11.00;99.90;;;;;;4983808;28;20577;-64
2021/09/21 02:22:42;;;;;;;7.28;4.55;;;11.10;99.90;;;;;;4984233;28;20124;-64
2021/09/21 02:25:08;;;;;;;10.18;5.10;;;11.00;99.90;;;;;;4984626;28;20085;-64
2021/09/21 02:27:33;;;;;;;8.63;5.10;;;11.00;99.90;;;;;;4984735;28;20486;-64
2021/09/21 02:29:59;;;;;;;13.18;5.90;;;11.00;99.90;;;;;;4984815;28;20672;-64
2021/09/21 02:32:24;;;;;;;9.60;5.25;;;11.00;99.90;;;;;;4983931;28;20077;-64
2021/09/21 02:34:50;;;;;;;14.02;6.82;;;11.00;99.90;;;;;;4982897;28;20042;-64
2021/09/21 02:37:15;;;;;;;9.77;5.43;;;10.90;99.90;;;;;;4984554;28;20057;-64
2021/09/21 02:39:41;;;;;;;11.23;5.18;;;10.90;99.90;;;;;;4983776;28;20035;-64
2021/09/21 02:42:06;;;;;;;8.35;5.43;;;11.00;99.90;;;;;;4984009;28;20041;-64
2021/09/21 02:44:32;;;;;;;10.00;5.00;;;10.90;99.90;;;;;;4985190;28;20026;-64
2021/09/21 02:46:57;;;;;;;13.25;6.13;;;10.90;99.90;;;;;;4983473;28;20056;-64
2021/09/21 02:49:22;;;;;;;14.00;5.32;;;10.90;99.90;;;;;;4985105;28;20030;-64
2021/09/21 02:51:48;;;;;;;14.63;5.50;;;10.90;99.90;;;;;;4983786;28;20034;-64
2021/09/21 02:54:13;;;;;;;8.07;4.63;;;10.90;99.90;;;;;;4984382;28;20026;-64
2021/09/21 02:56:39;;;;;;;9.23;5.20;;;10.80;99.90;;;;;;4991291;28;20058;-64
2021/09/21 02:59:05;;;;;;;12.10;5.15;;;10.80;99.90;;;;;;4983811;28;20069;-64
2021/09/21 03:01:30;;;;;;;10.82;5.55;;;10.80;99.90;;;;;;4983862;28;20038;-64
2021/09/21 03:04:00;;;;;;;9.50;4.90;;;10.80;99.90;;;;;;4984305;28;20031;-64
2021/09/21 03:06:33;;;;;;;7.85;4.75;;;10.90;99.90;;;;;;4984848;28;20577;-64
2021/09/21 03:09:09;;;;;;;11.23;5.03;;;10.90;99.90;;;;;;4985556;28;20050;-64
2021/09/21 03:11:45;;;;;;;11.75;5.10;;;10.90;99.90;;;;;;4986954;28;20125;-64
2021/09/21 03:19:33;;;;;;;9.52;5.43;;;10.90;99.90;;;;;;4982890;28;19925;-64
2021/09/21 03:21:59;;;;;;;11.38;6.07;;;10.90;99.90;;;;;;4980196;28;20049;-63
2021/09/21 03:24:24;;;;;;;10.73;5.38;;;10.90;99.90;;;;;;4981362;28;20070;-64
2021/09/21 03:26:49;;;;;;;9.93;5.60;;;10.90;99.90;;;;;;4981041;28;20772;-63
2021/09/21 03:29:15;;;;;;;11.27;5.85;;;10.90;99.90;;;;;;4981496;28;20169;-64
2021/09/21 03:31:41;;;;;;;8.13;5.07;;;10.90;99.90;;;;;;4978809;28;20108;-64
2021/09/21 03:34:06;;;;;;;7.75;5.40;;;10.90;99.90;;;;;;4979621;28;20038;-64
2021/09/21 03:36:31;;;;;;;9.45;6.00;;;10.90;99.90;;;;;;4981077;28;20038;-63
2021/09/21 03:38:57;;;;;;;9.80;4.70;;;10.90;99.90;;;;;;4979920;28;20038;-64
2021/09/21 03:41:22;;;;;;;7.75;5.30;;;10.90;99.90;;;;;;4979528;28;20034;-64
2021/09/21 03:43:48;;;;;;;9.13;5.72;;;10.90;99.90;;;;;;4980708;28;20030;-64
2021/09/21 03:46:13;;;;;;;10.77;6.22;;;10.90;99.90;;;;;;4980394;28;20550;-64
2021/09/21 03:48:39;;;;;;;8.80;4.80;;;10.90;99.90;;;;;;4981930;28;20038;-64
2021/09/21 03:51:05;;;;;;;8.95;5.32;;;10.90;99.90;;;;;;4979517;28;20037;-63
2021/09/21 03:53:30;;;;;;;13.05;5.50;;;10.90;99.90;;;;;;4981523;28;20034;-64
2021/09/21 03:55:55;;;;;;;7.72;4.97;;;10.80;99.90;;;;;;4982184;28;20066;-64
2021/09/21 03:58:21;;;;;;;9.50;5.55;;;10.80;99.90;;;;;;4981565;28;20557;-64
2021/09/21 04:00:46;;;;;;;9.57;5.50;;;10.80;99.90;;;;;;4981818;28;20412;-64
2021/09/21 04:03:12;;;;;;;11.48;5.55;;;10.80;99.90;;;;;;4981802;28;20402;-64
2021/09/21 04:05:37;;;;;;;8.85;5.57;;;10.70;99.90;;;;;;4981035;28;20139;-64
2021/09/21 04:08:03;;;;;;;10.18;5.40;;;10.70;99.90;;;;;;4980989;28;20046;-64
2021/09/21 04:10:28;;;;;;;8.98;5.22;;;10.70;99.90;;;;;;4981644;28;20045;-64
2021/09/21 04:12:54;;;;;;;8.05;5.30;;;10.60;99.90;;;;;;4981241;28;20054;-64
2021/09/21 04:15:19;;;;;;;7.57;4.90;;;10.50;99.90;;;;;;4980814;28;20120;-64
2021/09/21 04:17:45;;;;;;;8.02;5.13;;;10.50;99.90;;;;;;4981002;28;20038;-64
2021/09/21 04:20:10;;;;;;;13.40;5.95;;;10.50;99.90;;;;;;4979472;28;20137;-64
2021/09/21 04:22:37;;;;;;;13.52;6.10;;;10.50;99.90;;;;;;4978857;28;20124;-64
2021/09/21 04:25:03;;;;;;;11.30;6.00;;;10.50;99.90;;;;;;4981505;28;20133;-64
2021/09/21 04:27:29;;;;;;;11.02;6.32;;;10.50;99.90;;;;;;4980500;28;20044;-64
2021/09/21 04:29:59;;;;;;;10.55;6.22;;;10.40;99.90;;;;;;4981057;28;20049;-64
2021/09/21 04:32:25;;;;;;;9.73;6.03;;;10.40;99.90;;;;;;4980171;28;20525;-64
2021/09/21 04:34:50;;;;;;;12.82;6.78;;;10.40;99.90;;;;;;4980926;28;20046;-64
2021/09/21 04:37:16;;;;;;;14.13;5.85;;;10.40;99.90;;;;;;4980388;28;20097;-64
2021/09/21 04:39:41;;;;;;;14.27;6.40;;;10.40;99.90;;;;;;4980430;28;20121;-64
2021/09/21 04:42:07;;;;;;;10.02;6.47;;;10.40;99.90;;;;;;4980528;28;20543;-64
2021/09/21 04:44:32;;;;;;;11.90;6.55;;;10.40;99.90;;;;;;4979791;28;20128;-64
2021/09/21 04:46:58;;;;;;;10.07;6.28;;;10.50;99.90;;;;;;4980327;28;20065;-64
2021/09/21 04:49:23;;;;;;;11.18;5.80;;;10.50;99.90;;;;;;4980121;28;20026;-64
2021/09/21 04:51:49;;;;;;;12.90;6.68;;;10.50;99.90;;;;;;4978069;28;20094;-66
2021/09/21 04:54:14;;;;;;;12.18;6.25;;;10.60;99.90;;;;;;4978364;28;20070;-64
2021/09/21 04:56:39;;;;;;;13.70;6.68;;;10.60;99.90;;;;;;4979536;28;20038;-65
2021/09/21 04:59:05;;;;;;;15.80;6.85;;;10.60;99.90;;;;;;4978914;28;20038;-65
2021/09/21 05:01:31;;;;;;;10.75;6.72;;;10.60;99.90;;;;;;4980491;28;20034;-65
2021/09/21 05:03:57;;;;;;;11.57;6.40;;;10.70;99.90;;;;;;4978900;28;20113;-65
2021/09/21 05:06:22;;;;;;;14.15;6.28;;;10.70;99.90;;;;;;4980175;28;20852;-64
2021/09/21 05:08:48;;;;;;;12.38;6.80;;;10.70;99.90;;;;;;4977605;28;20092;-63
2021/09/21 05:11:13;;;;;;;10.80;6.57;;;10.70;99.90;;;;;;4974946;28;20039;-63
2021/09/21 05:13:39;;;;;;;10.85;6.32;;;10.80;99.90;;;;;;4977998;28;20041;-63
2021/09/21 05:16:04;;;;;;;14.25;7.13;;;10.80;99.90;;;;;;4977674;28;20048;-64
2021/09/21 05:18:30;;;;;;;16.65;7.22;;;10.90;99.90;;;;;;4978959;28;20037;-64
2021/09/21 05:20:55;;;;;;;13.20;7.03;;;10.90;99.90;;;;;;4977678;28;20128;-64
2021/09/21 05:23:21;;;;;;;12.82;7.57;;;11.10;99.90;;;;;;4979099;28;20554;-63
2021/09/21 05:25:46;;;;;;;14.02;7.22;;;11.00;99.90;;;;;;4978112;28;20129;-64
2021/09/21 05:28:12;;;;;;;13.60;8.18;;;11.00;99.90;;;;;;4978600;28;20042;-64
2021/09/21 05:30:37;;;;;;;12.05;7.25;;;11.10;99.90;;;;;;4977617;28;20509;-64
2021/09/21 05:33:03;;;;;;;10.68;6.25;;;11.10;99.90;;;;;;4977857;28;20026;-64
2021/09/21 05:35:28;;;;;;;14.05;7.00;;;11.20;99.90;;;;;;4977070;28;20052;-63
2021/09/21 05:37:54;;;;;;;12.85;6.45;;;11.20;99.90;;;;;;4978012;28;20137;-64
2021/09/21 05:40:19;;;;;;;11.93;6.78;;;11.20;99.90;;;;;;4979030;28;20061;-64
2021/09/21 05:42:45;;;;;;;10.50;6.43;;;11.30;99.90;;;;;;4978237;28;20037;-69
2021/09/21 05:45:10;;;;;;;10.90;5.72;;;11.40;99.90;;;;;;4982491;28;20046;-65
2021/09/21 05:47:36;;;;;;;8.85;5.70;;;11.40;99.90;;;;;;4981306;28;20799;-63
2021/09/21 05:50:01;;;;;;;10.73;6.53;;;11.50;99.90;;;;;;4978764;28;20903;-63
2021/09/21 05:52:27;;;;;;;10.98;6.20;;;11.60;99.90;;;;;;4978336;28;20124;-63
2021/09/21 05:54:52;;;;;;;9.60;5.90;;;11.60;99.90;;;;;;4978071;28;20037;-64
2021/09/21 05:57:18;;;;;;;10.48;6.43;;;11.70;99.90;;;;;;4977221;28;20038;-63
2021/09/21 05:59:44;;;;;;;11.15;6.07;;;11.80;99.90;;;;;;4975114;28;20034;-63
2021/09/21 06:02:09;;;;;;;12.65;7.55;;;11.80;99.90;;;;;;4978197;28;20109;-63
2021/09/21 06:04:35;;;;;;;9.80;5.57;;;11.90;99.90;;;;;;4978643;28;20479;-64
2021/09/21 06:07:01;;;;;;;8.68;5.38;;;12.00;99.90;;;;;;4978598;28;20026;-63
2021/09/21 06:09:26;;;;;;;11.80;6.00;;;12.00;99.90;;;;;;4978117;28;20137;-67
2021/09/21 06:11:52;;;;;;;8.88;5.22;;;12.00;99.90;;;;;;4978553;28;20547;-63
2021/09/21 06:14:17;;;;;;;8.85;5.72;;;12.10;99.90;;;;;;4977600;28;20105;-63
2021/09/21 06:16:43;;;;;;;10.65;5.18;;;12.10;99.90;;;;;;4976286;28;20555;-63
2021/09/21 06:19:08;;;;;;;13.80;7.05;;;12.20;99.90;;;;;;4977840;28;20133;-63
2021/09/21 06:21:34;;;;;;;8.95;5.55;;;12.20;99.90;;;;;;4977176;28;20038;-63
2021/09/21 06:23:59;;;;;;;11.20;5.80;;;12.30;99.90;;;;;;4969358;28;20745;-64
2021/09/21 06:26:25;;;;;;;16.38;5.05;;;12.40;99.90;;;;;;4973582;28;20069;-64
2021/09/21 06:28:50;;;;;;;8.55;4.85;;;12.50;99.90;;;;;;4977389;28;20042;-63
2021/09/21 06:31:16;;;;;;;10.05;6.10;;;12.50;99.90;;;;;;4982593;28;20038;-63
2021/09/21 06:33:43;;;;;;;8.98;5.38;;;12.50;99.90;;;;;;4976756;28;20132;-64
2021/09/21 06:36:09;;;;;;;10.35;5.47;;;12.60;99.90;;;;;;4977858;28;20141;-64
2021/09/21 06:38:37;;;;;;;10.57;5.32;;;12.80;99.90;;;;;;4975560;28;20030;-63
2021/09/21 06:41:03;;;;;;;12.55;5.68;;;12.80;99.90;;;;;;4978175;28;20515;-64
2021/09/21 06:43:28;;;;;;;8.90;5.57;;;12.90;99.90;;;;;;4977942;28;20038;-64
2021/09/21 06:45:55;;;;;;;10.43;6.03;;;13.00;99.90;;;;;;4975872;28;20038;-64
2021/09/21 06:48:21;;;;;;;8.32;4.85;;;13.10;99.90;;;;;;4979395;28;20042;-64
2021/09/21 06:50:46;;;;;;;9.07;5.05;;;13.10;99.90;;;;;;4981640;28;20781;-63
2021/09/21 06:53:12;;;;;;;6.70;4.72;;;13.10;99.90;;;;;;4979664;28;20052;-63
2021/09/21 06:55:37;;;;;;;9.50;5.47;;;13.10;99.90;;;;;;4981349;28;20046;-64
2021/09/21 06:58:03;;;;;;;10.10;5.13;;;13.20;99.90;;;;;;4980659;28;20068;-64
2021/09/21 07:00:29;;;;;;;10.48;6.03;;;13.20;99.90;;;;;;4981345;28;20035;-64
2021/09/21 07:02:54;;;;;;;10.98;6.00;;;13.20;99.90;;;;;;4979951;28;20704;-64
2021/09/21 07:05:20;;;;;;;7.00;4.82;;;13.30;99.90;;;;;;4980453;28;20041;-64
2021/09/21 07:07:45;;;;;;;14.05;6.75;;;13.20;99.90;;;;;;4978669;28;20080;-64
2021/09/21 07:10:11;;;;;;;10.77;5.40;;;13.30;99.90;;;;;;4980199;28;20035;-67
2021/09/21 07:12:36;;;;;;;10.35;5.00;;;13.40;99.90;;;;;;4980849;28;20644;-64
2021/09/21 07:15:02;;;;;;;7.40;4.53;;;13.50;99.90;;;;;;4980052;28;20155;-64
2021/09/21 07:17:27;;;;;;;8.73;5.82;;;13.60;99.90;;;;;;4979935;28;20057;-64
2021/09/21 07:19:53;;;;;;;8.43;4.40;;;13.50;99.90;;;;;;4981246;28;20211;-64
2021/09/21 07:22:18;;;;;;;9.30;5.25;;;13.60;99.90;;;;;;4980411;28;20104;-64
2021/09/21 07:24:44;;;;;;;10.18;5.10;;;13.70;99.90;;;;;;4981223;28;20034;-64
2021/09/21 07:27:09;;;;;;;9.30;4.90;;;13.80;99.90;;;;;;4981323;28;20394;-64
2021/09/21 07:29:35;;;;;;;6.18;4.50;;;14.00;99.90;;;;;;4980593;28;20105;-64
2021/09/21 07:32:00;;;;;;;12.05;4.70;;;14.10;99.90;;;;;;4981650;28;20070;-64
2021/09/21 07:34:26;;;;;;;11.05;5.38;;;14.20;99.90;;;;;;4980432;28;20034;-64
2021/09/21 07:36:52;;;;;;;8.50;4.82;;;14.20;99.90;;;;;;4985358;28;20651;-64
2021/09/21 07:39:18;;;;;;;10.93;5.15;;;14.30;99.90;;;;;;4976896;28;20050;-64
2021/09/21 07:41:43;;;;;;;10.43;5.00;;;14.20;99.90;;;;;;4979876;28;20030;-64
2021/09/21 07:44:09;;;;;;;7.47;4.80;;;14.10;99.90;;;;;;4980208;28;20573;-64
2021/09/21 07:46:35;;;;;;;7.35;5.00;;;14.00;99.90;;;;;;4980189;28;20400;-64
2021/09/21 07:49:00;;;;;;;6.18;4.70;;;14.10;99.90;;;;;;4979509;28;20046;-64
2021/09/21 07:51:26;;;;;;;9.45;4.72;;;14.30;99.90;;;;;;4978009;28;20072;-64
2021/09/21 07:53:51;;;;;;;8.60;5.72;;;14.60;99.90;;;;;;4979561;28;20869;-64
2021/09/21 07:56:17;;;;;;;9.25;4.80;;;14.60;99.90;;;;;;4978293;28;20053;-64
2021/09/21 07:58:42;;;;;;;9.07;5.32;;;14.60;99.90;;;;;;4978189;28;20042;-64
2021/09/21 08:01:08;;;;;;;10.18;4.60;;;14.50;99.90;;;;;;4979750;28;20030;-64
2021/09/21 08:03:33;;;;;;;8.80;5.05;;;14.60;99.90;;;;;;4979144;28;20034;-64
2021/09/21 08:05:59;;;;;;;11.95;5.05;;;14.80;99.90;;;;;;4979965;28;20066;-64
2021/09/21 08:08:25;;;;;;;7.60;4.95;;;15.00;99.90;;;;;;4980650;28;20493;-65
2021/09/21 08:10:50;;;;;;;7.68;4.53;;;15.20;99.90;;;;;;4979931;28;20042;-63
2021/09/21 08:13:16;;;;;;;14.65;5.50;;;15.30;99.90;;;;;;4980073;28;20050;-64
2021/09/21 08:15:41;;;;;;;9.55;5.28;;;15.30;99.90;;;;;;4980892;28;20654;-64
2021/09/21 08:18:07;;;;;;;9.88;5.15;;;15.30;99.90;;;;;;4980578;28;20130;-64
2021/09/21 08:20:32;;;;;;;6.93;5.22;;;15.40;99.90;;;;;;4980401;28;20158;-64
2021/09/21 08:22:59;;;;;;;9.55;5.55;;;15.40;99.90;;;;;;4980490;28;20573;-64
2021/09/21 08:25:24;;;;;;;10.10;5.10;;;15.10;99.90;;;;;;4979841;28;20058;-64
2021/09/21 08:27:50;;;;;;;9.18;5.07;;;15.50;99.90;;;;;;4978646;28;20153;-64
2021/09/21 08:30:17;;;;;;;6.32;4.25;;;15.70;99.90;;;;;;4979769;28;20033;-64
2021/09/21 08:32:43;;;;;;;7.53;4.85;;;15.90;99.90;;;;;;4979139;28;20812;-64
2021/09/21 08:35:09;;;;;;;10.63;4.97;;;16.00;99.90;;;;;;4978631;28;20026;-64
2021/09/21 08:37:35;;;;;;;7.80;4.85;;;16.30;99.90;;;;;;4978365;28;20085;-66
2021/09/21 08:40:00;;;;;;;17.85;6.35;;;16.70;99.90;;;;;;4980483;28;20034;-64
2021/09/21 08:42:26;;;;;;;18.40;8.48;;;16.90;99.90;;;;;;4979990;28;20030;-64
2021/09/21 08:44:51;;;;;;;13.65;7.38;;;17.10;99.90;;;;;;4979664;28;20101;-65
2021/09/21 08:47:17;;;;;;;13.45;6.82;;;17.10;99.90;;;;;;4980458;28;20085;-64
2021/09/21 08:49:43;;;;;;;10.02;5.50;;;17.20;99.90;;;;;;4978609;28;20054;-64
2021/09/21 08:52:08;;;;;;;10.95;6.78;;;17.10;99.90;;;;;;4980164;28;20096;-64
2021/09/21 08:54:34;;;;;;;8.93;5.53;;;17.40;99.90;;;;;;4980187;28;20479;-64
2021/09/21 08:57:00;;;;;;;14.40;6.47;;;17.50;99.90;;;;;;4979001;28;20030;-64
2021/09/21 08:59:25;;;;;;;9.25;4.80;;;17.70;99.90;;;;;;4979292;28;20807;-64
2021/09/21 09:01:51;;;;;;;8.45;5.00;;;17.80;99.90;;;;;;4979737;28;20026;-64
2021/09/21 09:04:16;;;;;;;6.50;4.20;;;17.70;99.90;;;;;;4980111;28;20026;-64
2021/09/21 09:06:44;;;;;;;9.88;5.40;;;17.70;99.40;;;;;;4977666;28;20570;-68
2021/09/21 09:09:09;;;;;;;8.10;4.80;;;17.80;99.90;;;;;;4979020;28;20042;-64
2021/09/21 09:11:35;;;;;;;8.60;5.13;;;17.90;99.90;;;;;;4977436;28;20030;-64
2021/09/21 09:14:01;;;;;;;8.50;4.40;;;17.70;99.90;;;;;;4978636;28;20041;-64
2021/09/21 09:16:26;;;;;;;7.95;4.63;;;17.80;99.30;;;;;;4979383;28;20066;-64
2021/09/21 09:18:52;;;;;;;6.65;3.90;;;17.90;99.90;;;;;;4978956;28;20030;-64
2021/09/21 09:21:17;;;;;;;8.07;3.70;;;18.00;99.90;;;;;;4978102;28;20450;-64
2021/09/21 09:23:42;;;;;;;11.68;3.38;;;18.20;99.90;;;;;;4979257;28;20117;-64
2021/09/21 09:26:08;;;;;;;6.32;4.05;;;18.30;99.10;;;;;;4978103;28;20034;-64
2021/09/21 09:28:33;;;;;;;5.15;3.30;;;18.40;98.70;;;;;;4978598;28;20038;-64
2021/09/21 09:30:59;;;;;;;6.60;3.38;;;18.20;97.80;;;;;;4978946;28;20545;-64
2021/09/21 09:33:25;;;;;;;5.53;3.20;;;18.10;98.00;;;;;;4980576;28;20553;-64
2021/09/21 09:35:50;;;;;;;4.60;2.80;;;17.80;98.40;;;;;;4978111;28;20121;-64
2021/09/21 09:38:16;;;;;;;4.13;3.30;;;17.80;98.40;;;;;;4977749;28;20042;-64
2021/09/21 09:40:41;;;;;;;5.18;3.30;;;17.70;98.90;;;;;;4977738;28;20105;-64
2021/09/21 09:43:07;;;;;;;6.63;3.50;;;18.10;99.00;;;;;;4976564;28;20034;-64
2021/09/21 09:45:33;;;;;;;7.50;2.88;;;18.20;98.00;;;;;;4976318;28;20030;-65
2021/09/21 09:47:59;;;;;;;6.05;3.30;;;18.30;98.10;;;;;;4978286;28;20045;-65
2021/09/21 09:50:24;;;;;;;6.47;3.05;;;18.50;97.80;;;;;;4977645;28;20030;-65
2021/09/21 09:52:49;;;;;;;8.77;3.75;;;18.30;96.10;;;;;;4978099;28;20080;-64
2021/09/21 09:55:15;;;;;;;5.68;3.30;;;18.00;95.80;;;;;;4978547;28;20273;-65
2021/09/21 09:57:40;;;;;;;5.15;2.70;;;17.60;97.60;;;;;;4975603;28;20109;-65
2021/09/21 10:00:06;;;;;;;6.53;3.22;;;17.70;97.80;;;;;;4978579;28;20042;-65
2021/09/21 10:02:37;;;;;;;10.32;3.17;;;18.60;97.40;;;;;;4976047;28;20036;-64
2021/09/21 10:05:02;;;;;;;7.18;3.15;;;18.10;95.10;;;;;;4977254;28;20035;-64
2021/09/21 10:07:29;;;;;;;4.28;2.80;;;18.50;96.10;;;;;;4976449;28;20054;-64
2021/09/21 10:09:54;;;;;;;6.93;3.63;;;17.90;95.80;;;;;;4977752;28;20037;-64
2021/09/21 10:12:20;;;;;;;7.55;3.20;;;18.40;95.20;;;;;;4977889;28;20034;-65
2021/09/21 10:14:45;;;;;;;5.82;3.50;;;18.70;94.60;;;;;;4976991;28;20126;-65
2021/09/21 10:17:11;;;;;;;6.22;3.35;;;18.80;94.40;;;;;;4977426;28;20581;-64
2021/09/21 10:19:37;;;;;;;5.90;3.90;;;18.70;95.50;;;;;;4975483;28;20141;-65
2021/09/21 10:22:02;;;;;;;4.40;2.90;;;19.00;94.30;;;;;;4976949;28;20040;-65
2021/09/21 10:24:28;;;;;;;8.63;3.70;;;19.10;94.10;;;;;;4980984;28;20038;-65
2021/09/21 10:26:53;;;;;;;7.70;3.70;;;18.80;94.70;;;;;;4981158;28;20031;-65
2021/09/21 10:29:20;;;;;;;5.72;3.35;;;18.70;95.40;;;;;;4981221;28;20439;-64
2021/09/21 10:31:45;;;;;;;6.65;3.45;;;18.60;95.10;;;;;;4982657;28;20093;-64
2021/09/21 10:34:11;;;;;;;8.05;4.90;;;18.60;95.90;;;;;;4981617;28;20042;-64
2021/09/21 10:36:36;;;;;;;6.25;3.00;;;18.60;96.60;;;;;;4981294;28;20502;-65
2021/09/21 10:39:02;;;;;;;6.90;3.80;;;18.20;96.10;;;;;;4975297;28;20530;-64
2021/09/21 10:41:27;;;;;;;6.25;3.70;;;18.10;96.80;;;;;;4976131;28;20499;-65
2021/09/21 10:43:53;;;;;;;14.25;3.85;;;18.00;97.10;;;;;;4982219;28;20159;-65
2021/09/21 10:46:22;;;;;;;6.85;3.08;;;17.80;96.90;;;;;;4987226;28;20058;-65
2021/09/21 10:48:48;;;;;;;4.20;3.03;;;17.60;97.60;;;;;;4981465;28;20153;-65
2021/09/21 10:51:13;;;;;;;5.25;2.45;;;17.50;97.70;;;;;;4981746;28;20038;-64
2021/09/21 10:53:39;;;;;;;3.47;2.13;;;17.80;97.50;;;;;;4981446;28;20665;-64
2021/09/21 10:56:04;;;;;;;3.67;2.38;;;17.40;97.80;;;;;;4987517;28;20599;-65
2021/09/21 10:58:30;;;;;;;6.90;3.25;;;17.80;97.90;;;;;;4979933;28;20511;-64
2021/09/21 11:00:56;;;;;;;4.93;3.40;;;17.40;97.40;;;;;;4981759;28;20776;-64
2021/09/21 11:03:21;;;;;;;5.20;2.67;;;17.40;98.40;;;;;;4981306;28;20032;-65
2021/09/21 11:05:47;;;;;;;8.15;2.47;;;17.40;96.60;;;;;;4981164;28;20026;-65
2021/09/21 11:08:13;;;;;;;4.18;2.75;;;17.10;98.00;;;;;;4981036;28;20125;-65
2021/09/21 11:10:38;;;;;;;3.78;2.60;;;17.20;97.20;;;;;;4979901;28;20042;-64
2021/09/21 11:13:04;;;;;;;4.95;2.60;;;17.00;96.40;;;;;;4980345;28;20614;-65
2021/09/21 11:15:29;;;;;;;4.40;2.60;;;16.90;97.30;;;;;;4980631;28;20726;-64
2021/09/21 11:17:55;;;;;;;6.78;2.40;;;16.90;98.00;;;;;;4979659;28;20046;-65
2021/09/21 11:20:20;;;;;;;4.15;2.60;;;17.10;97.90;;;;;;4980838;28;20050;-64
2021/09/21 11:22:46;;;;;;;5.20;3.03;;;17.40;96.50;;;;;;4978283;28;20042;-64
2021/09/21 11:25:11;;;;;;;4.80;2.63;;;17.70;96.80;;;;;;4979937;28;20586;-65
2021/09/21 11:27:37;;;;;;;4.40;2.47;;;17.90;96.50;;;;;;4978330;28;20030;-65
2021/09/21 11:30:02;;;;;;;4.57;3.08;;;17.60;96.80;;;;;;4979241;28;20838;-65
2021/09/21 11:32:28;;;;;;;5.88;2.90;;;17.60;97.20;;;;;;4963254;28;20037;-64
2021/09/21 11:34:53;;;;;;;6.35;3.30;;;17.60;96.90;;;;;;4980633;28;20049;-65
2021/09/21 11:37:19;;;;;;;4.13;2.88;;;17.90;96.70;;;;;;4983139;28;20491;-64
2021/09/21 11:39:45;;;;;;;4.85;3.25;;;17.70;96.20;;;;;;4983209;28;20038;-65
2021/09/21 11:42:10;;;;;;;5.63;2.67;;;18.00;95.90;;;;;;4982419;28;20046;-64
2021/09/21 11:44:36;;;;;;;5.47;2.92;;;17.70;96.30;;;;;;4982704;28;20062;-64
2021/09/21 11:47:01;;;;;;;10.20;2.92;;;17.60;96.20;;;;;;4979834;28;20056;-64
2021/09/21 11:49:27;;;;;;;8.02;3.40;;;17.50;97.30;;;;;;4980233;28;20074;-64
2021/09/21 11:51:52;;;;;;;7.18;2.67;;;17.40;97.30;;;;;;4981026;28;20081;-64
2021/09/21 11:54:18;;;;;;;6.35;2.92;;;17.40;96.60;;;;;;4980043;28;20740;-66
2021/09/21 11:56:43;;;;;;;12.88;3.42;;;17.40;97.30;;;;;;4976868;28;20074;-64
2021/09/21 11:59:09;;;;;;;4.85;3.00;;;17.70;97.00;;;;;;4977642;28;20566;-64
2021/09/21 12:01:34;;;;;;;5.80;3.47;;;18.00;96.40;;;;;;4980338;28;20030;-64
2021/09/21 12:04:00;;;;;;;10.75;3.65;;;18.70;96.20;;;;;;4981173;28;20030;-67
2021/09/21 12:06:25;;;;;;;16.13;7.72;;;18.00;94.80;;;;;;4979687;28;20045;-67
2021/09/21 12:08:51;;;;;;;9.27;5.57;;;18.00;95.10;;;;;;4978619;28;20038;-67
2021/09/21 12:11:16;;;;;;;6.97;3.67;;;18.00;96.60;;;;;;4977531;28;21057;-68
2021/09/21 12:13:42;;;;;;;10.23;4.93;;;18.00;94.70;;;;;;4980400;28;20069;-68
2021/09/21 12:16:07;;;;;;;8.15;5.68;;;18.00;95.70;;;;;;4980944;28;20045;-69
2021/09/21 12:18:33;;;;;;;6.50;4.78;;;18.00;96.50;;;;;;4979115;28;20039;-69
2021/09/21 12:20:58;;;;;;;7.10;3.03;;;16.70;95.80;;;;;;4981335;28;20038;-67
2021/09/21 12:23:24;;;;;;;9.18;4.10;;;18.10;96.40;;;;;;4980593;28;20044;-67
2021/09/21 12:25:49;;;;;;;9.32;4.18;;;17.40;96.50;;;;;;4981392;28;20042;-67
2021/09/21 12:28:15;;;;;;;17.38;5.20;;;17.30;96.10;;;;;;4978661;28;20041;-67
2021/09/21 12:30:40;;;;;;;9.25;3.85;;;17.10;97.60;;;;;;4980199;28;20038;-67
2021/09/21 12:33:05;;;;;;;10.50;7.00;;;17.00;96.50;;;;;;4980749;28;20034;-68
2021/09/21 12:35:31;;;;;;;16.45;10.65;;;17.10;97.20;;;;;;4980108;28;20062;-66
2021/09/21 12:37:56;;;;;;;8.45;4.80;;;17.10;97.40;;;;;;4979818;28;20026;-68
2021/09/21 12:40:22;;;;;;;5.00;3.58;;;17.30;97.30;;;;;;4980076;28;20426;-68
2021/09/21 12:42:47;;;;;;;11.63;4.10;;;17.50;96.30;;;;;;4979802;28;20057;-68
2021/09/21 12:45:13;;;;;;;7.55;4.80;;;17.60;96.90;;;;;;4980228;28;20034;-68
2021/09/21 12:47:38;;;;;;;7.10;4.78;;;18.00;96.10;;;;;;4978005;28;20038;-67